Terminal Aerodrome Forecast
Issued by NWS Wakefield, VA

Home | Current Version | Previous Version | Text Only | Print | Product List | Glossary On
Versions: 1 2 3 4 5 6 7 8 9 10 11 12 13 14 15 16 17 18
000
FTUS41 KAKQ 100500 RRA
TAFSBY
TAF
KSBY 100546Z 1006/1106 VRB03KT P6SM SCT120
     FM100800 VRB03KT 4SM BR BKN150
     FM101400 24006KT P6SM SCT030 BKN120
     FM101900 17006KT P6SM BKN040=

USA.gov is the U.S. government's official web portal to all federal, state and local government web resources and services.